Time;durP1;ratioP1;P1;durP2;ratioP2;P2;SDS_P1;SDS_P2;PMS_P1;PMS_P2;Temp;Humidity;BMP_temperature;BMP_pressure;BME280_temperature;BME280_humidity;BME280_pressure;Samples;Min_cycle;Max_cycle;Signal;HPM_P1;HPM_P2
2022/06/15 00:00:32;;;;;;;1.90;1.53;;;14.20;99.90;;;;;;5015616;28;20183;-78
2022/06/15 00:02:58;;;;;;;1.77;1.67;;;14.00;99.90;;;;;;5015332;28;20189;-78
2022/06/15 00:05:23;;;;;;;2.33;1.80;;;13.90;99.90;;;;;;4998789;28;20301;-78
2022/06/15 00:07:49;;;;;;;3.13;1.80;;;13.90;99.90;;;;;;4998813;28;20182;-78
2022/06/15 00:10:15;;;;;;;3.13;1.67;;;13.90;99.90;;;;;;5015589;28;20265;-78
2022/06/15 00:12:42;;;;;;;2.07;1.70;;;13.70;99.90;;;;;;4998526;28;20237;-78
2022/06/15 00:15:08;;;;;;;3.30;2.30;;;13.60;99.90;;;;;;4998911;28;20572;-78
2022/06/15 00:17:34;;;;;;;2.57;1.53;;;13.60;99.90;;;;;;5015278;28;20186;-78
2022/06/15 00:20:00;;;;;;;1.93;1.80;;;13.70;99.90;;;;;;5015031;28;20182;-78
2022/06/15 00:22:25;;;;;;;1.80;1.70;;;13.70;99.90;;;;;;4998851;28;20185;-78
2022/06/15 00:24:51;;;;;;;1.97;1.67;;;13.70;99.90;;;;;;4998745;28;20248;-78
2022/06/15 00:27:16;;;;;;;3.07;1.80;;;13.60;99.90;;;;;;5015353;28;20182;-78
2022/06/15 00:29:42;;;;;;;2.57;1.50;;;13.60;99.90;;;;;;5015192;28;20203;-78
2022/06/15 00:32:08;;;;;;;3.20;2.10;;;13.70;99.90;;;;;;4998539;28;20176;-78
2022/06/15 00:34:33;;;;;;;1.90;1.70;;;13.70;99.90;;;;;;4998519;28;20294;-78
2022/06/15 00:37:01;;;;;;;2.87;1.80;;;13.50;99.90;;;;;;5015182;28;20179;-78
2022/06/15 00:39:27;;;;;;;2.20;1.80;;;13.40;99.90;;;;;;4999150;28;20228;-78
2022/06/15 00:41:52;;;;;;;3.37;2.07;;;13.40;99.90;;;;;;5020890;28;20179;-78
2022/06/15 00:44:21;;;;;;;2.03;1.60;;;13.50;99.90;;;;;;4995122;28;20194;-78
2022/06/15 00:47:03;;;;;;;2.30;1.60;;;13.50;99.90;;;;;;5012658;28;20219;-78
2022/06/15 00:49:49;;;;;;;3.13;1.60;;;13.60;99.90;;;;;;4995445;28;20258;-78
2022/06/15 00:52:22;;;;;;;3.63;1.80;;;13.50;99.90;;;;;;5014147;28;20175;-78
2022/06/15 00:54:50;;;;;;;2.73;1.63;;;13.50;99.90;;;;;;5011452;28;20250;-78
2022/06/15 00:57:16;;;;;;;2.20;2.00;;;13.60;99.90;;;;;;4998251;28;20620;-78
2022/06/15 00:59:52;;;;;;;2.37;1.70;;;13.40;99.90;;;;;;5015470;28;20725;-78
2022/06/15 01:02:18;;;;;;;2.33;1.80;;;13.30;99.90;;;;;;5015215;28;20664;-78
2022/06/15 01:05:15;;;;;;;2.70;1.70;;;13.20;99.90;;;;;;5015333;28;20194;-78
2022/06/15 01:07:43;;;;;;;2.40;1.87;;;13.10;99.90;;;;;;5015218;28;20262;-78
2022/06/15 01:10:18;;;;;;;1.97;1.60;;;13.00;99.90;;;;;;5015077;28;20186;-78
2022/06/15 01:13:08;;;;;;;2.97;1.73;;;13.10;99.90;;;;;;5015033;28;20205;-78
2022/06/15 01:15:45;;;;;;;1.80;1.70;;;13.10;99.90;;;;;;5016415;28;20174;-78
2022/06/15 01:18:37;;;;;;;1.87;1.73;;;13.20;99.90;;;;;;5015275;28;20174;-78
2022/06/15 01:21:11;;;;;;;1.80;1.60;;;13.40;99.90;;;;;;5014947;28;20174;-78
2022/06/15 01:24:02;;;;;;;2.03;1.90;;;13.20;99.90;;;;;;5015134;28;20225;-78
2022/06/15 01:26:49;;;;;;;1.70;1.60;;;13.10;99.90;;;;;;5015164;28;20229;-78
2022/06/15 01:29:40;;;;;;;2.27;1.80;;;13.10;99.90;;;;;;5014911;28;20174;-78
2022/06/15 01:32:18;;;;;;;2.73;1.80;;;13.20;99.90;;;;;;5014924;28;20262;-78
2022/06/15 01:34:59;;;;;;;1.90;1.80;;;13.00;99.90;;;;;;5015036;28;20282;-78
2022/06/15 01:37:42;;;;;;;2.10;1.53;;;12.70;99.90;;;;;;5014979;28;20202;-78
2022/06/15 01:40:17;;;;;;;3.87;1.80;;;12.60;99.90;;;;;;5014601;28;20167;-78
2022/06/15 01:43:07;;;;;;;2.10;1.80;;;12.50;99.90;;;;;;5031523;28;20181;-78
2022/06/15 01:45:35;;;;;;;2.10;1.70;;;12.60;99.90;;;;;;5034584;28;20214;-78
2022/06/15 01:48:06;;;;;;;4.20;1.87;;;12.80;99.90;;;;;;5034439;28;20182;-78
2022/06/15 01:50:37;;;;;;;2.43;2.00;;;12.70;99.90;;;;;;5002145;28;20166;-78
2022/06/15 01:53:26;;;;;;;1.80;1.70;;;12.90;99.90;;;;;;5017867;28;20173;-78
2022/06/15 01:56:00;;;;;;;2.83;1.80;;;12.70;99.90;;;;;;5042345;22;20217;-79
2022/06/15 01:58:29;;;;;;;2.03;1.73;;;12.60;99.90;;;;;;5038618;28;20178;-78
2022/06/15 02:01:16;;;;;;;2.00;1.77;;;12.40;99.90;;;;;;5037287;28;20181;-78
2022/06/15 02:03:52;;;;;;;2.20;1.80;;;12.30;99.90;;;;;;5020098;28;20181;-78
2022/06/15 02:06:23;;;;;;;2.27;1.70;;;12.20;99.90;;;;;;5036848;28;20259;-78
2022/06/15 02:09:04;;;;;;;2.17;1.70;;;12.30;99.90;;;;;;5035864;28;20170;-78
2022/06/15 02:11:34;;;;;;;2.13;1.90;;;12.40;99.90;;;;;;5037752;28;20151;-78
2022/06/15 02:14:19;;;;;;;2.43;1.97;;;12.40;99.90;;;;;;5003954;28;20679;-78
2022/06/15 02:16:55;;;;;;;2.20;2.00;;;12.40;99.90;;;;;;5037645;28;20218;-78
2022/06/15 02:19:32;;;;;;;2.77;1.80;;;12.60;99.90;;;;;;5037044;28;20174;-78
2022/06/15 02:22:02;;;;;;;3.43;2.00;;;12.40;99.90;;;;;;5037389;28;20661;-78
2022/06/15 02:24:29;;;;;;;2.17;1.90;;;12.50;99.90;;;;;;5019486;28;20183;-78
2022/06/15 02:26:56;;;;;;;2.43;1.87;;;12.50;99.90;;;;;;5004269;28;20210;-78
2022/06/15 02:29:24;;;;;;;2.77;1.87;;;12.50;99.90;;;;;;5003515;28;20648;-78
2022/06/15 02:31:50;;;;;;;2.17;1.97;;;12.30;99.90;;;;;;5036009;28;20170;-78
2022/06/15 02:34:15;;;;;;;2.73;1.80;;;12.40;99.90;;;;;;5019626;28;20180;-78
2022/06/15 02:36:41;;;;;;;2.17;1.73;;;12.50;99.90;;;;;;5020757;28;20293;-78
2022/06/15 02:39:07;;;;;;;1.90;1.70;;;12.60;99.90;;;;;;5019595;28;20189;-78
2022/06/15 02:41:34;;;;;;;2.97;1.80;;;12.80;99.90;;;;;;5035853;28;20188;-78
2022/06/15 02:44:01;;;;;;;2.60;2.00;;;12.80;99.90;;;;;;5019081;28;20217;-78
2022/06/15 02:46:31;;;;;;;2.80;1.83;;;12.70;99.90;;;;;;5036747;28;20212;-78
2022/06/15 02:48:57;;;;;;;2.97;1.90;;;12.50;99.90;;;;;;5036377;28;20313;-78
2022/06/15 02:52:03;;;;;;;3.43;1.83;;;12.40;99.90;;;;;;5036470;28;20185;-78
2022/06/15 02:54:44;;;;;;;2.40;2.03;;;12.20;99.90;;;;;;4959688;28;20183;-78
2022/06/15 02:57:11;;;;;;;1.90;1.80;;;12.00;99.90;;;;;;5027628;28;20218;-78
2022/06/15 02:59:37;;;;;;;2.33;1.93;;;12.00;99.90;;;;;;5036040;28;20181;-79
2022/06/15 03:02:03;;;;;;;2.40;1.90;;;12.00;99.90;;;;;;5019243;28;20184;-78
2022/06/15 03:04:29;;;;;;;2.70;1.97;;;11.90;99.90;;;;;;5019722;28;20189;-78
2022/06/15 03:06:55;;;;;;;3.10;1.93;;;12.10;99.90;;;;;;5019165;28;20213;-78
2022/06/15 03:09:21;;;;;;;2.63;2.00;;;12.10;99.90;;;;;;5035815;28;20205;-78
2022/06/15 03:11:48;;;;;;;1.90;1.80;;;12.10;99.90;;;;;;5018958;28;20174;-79
2022/06/15 03:14:14;;;;;;;3.27;2.23;;;11.90;99.90;;;;;;5018822;28;20179;-78
2022/06/15 03:16:43;;;;;;;2.87;2.00;;;12.00;99.90;;;;;;5035623;28;20194;-78
2022/06/15 03:19:12;;;;;;;2.40;2.00;;;12.00;99.90;;;;;;5019403;28;20236;-78
2022/06/15 03:21:38;;;;;;;3.40;2.00;;;11.90;99.90;;;;;;5036816;28;20182;-78
2022/06/15 03:24:05;;;;;;;3.03;2.10;;;11.70;99.90;;;;;;5018694;28;20192;-78
2022/06/15 03:26:30;;;;;;;3.10;2.20;;;11.70;99.90;;;;;;5002503;28;20627;-78
2022/06/15 03:28:56;;;;;;;2.27;2.07;;;11.50;99.90;;;;;;5034745;28;20695;-78
2022/06/15 03:31:21;;;;;;;3.53;2.13;;;11.60;99.90;;;;;;5018983;28;20181;-78
2022/06/15 03:33:47;;;;;;;4.80;2.60;;;11.70;99.90;;;;;;5034402;28;20280;-78
2022/06/15 03:36:13;;;;;;;2.80;2.27;;;11.70;99.90;;;;;;5018077;28;20202;-78
2022/06/15 03:38:38;;;;;;;2.30;2.10;;;11.60;99.90;;;;;;5018357;28;20185;-78
2022/06/15 03:41:04;;;;;;;2.50;2.20;;;11.50;99.90;;;;;;5034895;28;20182;-78
2022/06/15 03:43:29;;;;;;;3.13;2.47;;;11.40;99.90;;;;;;5001834;28;20625;-78
2022/06/15 03:45:56;;;;;;;2.50;2.10;;;11.40;99.90;;;;;;5001758;28;20240;-78
2022/06/15 03:48:23;;;;;;;2.63;2.30;;;11.60;99.90;;;;;;5034617;28;20175;-78
2022/06/15 03:50:48;;;;;;;4.23;2.90;;;11.80;99.90;;;;;;5018590;28;20212;-78
2022/06/15 03:53:14;;;;;;;2.53;2.20;;;11.90;99.90;;;;;;5034839;28;20174;-78
2022/06/15 03:55:41;;;;;;;2.60;2.40;;;12.00;99.90;;;;;;5001866;28;20523;-78
2022/06/15 03:58:07;;;;;;;3.90;2.53;;;12.00;99.90;;;;;;5034418;28;20193;-78
2022/06/15 04:00:33;;;;;;;5.93;2.60;;;12.00;99.90;;;;;;5002095;28;20179;-78
2022/06/15 04:02:59;;;;;;;4.20;2.50;;;11.90;99.90;;;;;;5018070;28;20174;-78
2022/06/15 04:05:40;;;;;;;4.27;2.80;;;12.00;99.90;;;;;;5018256;28;20205;-78
2022/06/15 04:10:50;;;;;;;2.83;2.40;;;12.00;99.90;;;;;;5034732;28;20172;-78
2022/06/15 04:13:20;;;;;;;3.53;2.80;;;11.90;99.90;;;;;;5017546;28;20167;-79
2022/06/15 04:15:46;;;;;;;3.03;2.70;;;11.90;99.90;;;;;;5018383;28;20255;-78
2022/06/15 04:18:12;;;;;;;3.67;2.60;;;11.80;99.90;;;;;;5033940;28;20178;-78
2022/06/15 04:20:37;;;;;;;3.77;2.40;;;11.70;99.90;;;;;;5017395;28;20554;-78
2022/06/15 04:23:12;;;;;;;2.60;2.33;;;11.60;99.90;;;;;;5017047;28;20241;-78
2022/06/15 04:25:41;;;;;;;3.57;2.47;;;11.50;99.90;;;;;;5001991;28;20698;-78
2022/06/15 04:28:08;;;;;;;3.50;2.50;;;11.50;99.90;;;;;;5017482;28;20197;-78
2022/06/15 04:30:34;;;;;;;2.80;2.43;;;11.50;99.90;;;;;;5017050;28;20183;-78
2022/06/15 04:33:00;;;;;;;5.67;2.90;;;11.50;99.90;;;;;;5031801;28;20232;-78
2022/06/15 04:35:26;;;;;;;3.73;3.00;;;11.50;99.90;;;;;;5031781;28;20174;-78
2022/06/15 04:37:52;;;;;;;3.37;2.80;;;11.60;99.90;;;;;;5031427;28;20185;-78
2022/06/15 04:40:18;;;;;;;3.07;2.77;;;11.70;99.90;;;;;;4998801;28;20181;-78
2022/06/15 04:42:44;;;;;;;3.63;2.93;;;11.70;99.90;;;;;;4997973;28;20655;-78
2022/06/15 04:45:11;;;;;;;3.53;2.90;;;11.80;99.90;;;;;;4995219;28;20293;-78
2022/06/15 04:47:37;;;;;;;3.00;2.70;;;11.90;99.90;;;;;;5011892;28;20198;-79
2022/06/15 04:50:04;;;;;;;4.37;2.93;;;12.10;99.90;;;;;;5011956;28;20179;-78
2022/06/15 04:52:30;;;;;;;3.70;3.13;;;12.10;99.90;;;;;;5011760;28;20181;-78
2022/06/15 04:54:55;;;;;;;4.63;2.93;;;12.10;99.90;;;;;;5012482;28;20188;-78
2022/06/15 04:57:21;;;;;;;3.10;2.80;;;12.20;99.90;;;;;;4996560;28;20242;-78
2022/06/15 04:59:46;;;;;;;4.23;3.10;;;12.20;99.90;;;;;;4995295;28;20317;-78
2022/06/15 05:02:12;;;;;;;3.57;2.80;;;12.10;99.90;;;;;;4994920;28;20182;-78
2022/06/15 05:04:38;;;;;;;4.87;3.00;;;12.10;99.90;;;;;;4994986;28;20559;-78
2022/06/15 05:07:04;;;;;;;5.03;3.10;;;12.20;99.90;;;;;;4997484;28;20222;-79
2022/06/15 05:09:29;;;;;;;3.60;3.20;;;12.30;99.90;;;;;;5014970;28;20309;-79
2022/06/15 05:11:57;;;;;;;7.60;3.50;;;12.30;99.90;;;;;;4997732;28;20642;-79
2022/06/15 05:14:22;;;;;;;3.47;2.97;;;12.40;99.90;;;;;;4998037;28;20195;-78
2022/06/15 05:16:48;;;;;;;6.03;2.97;;;12.50;99.90;;;;;;5014302;28;20200;-79
2022/06/15 05:19:14;;;;;;;4.97;3.53;;;12.60;99.90;;;;;;5015405;28;20183;-79
2022/06/15 05:21:44;;;;;;;4.00;2.80;;;12.70;99.90;;;;;;5014390;28;20182;-79
2022/06/15 05:24:10;;;;;;;4.23;3.40;;;12.80;99.90;;;;;;5014630;28;20215;-79
2022/06/15 05:26:35;;;;;;;4.50;3.33;;;13.00;99.90;;;;;;5014202;28;20210;-79
2022/06/15 05:29:01;;;;;;;4.73;3.47;;;13.20;99.90;;;;;;4997310;28;20520;-79
2022/06/15 05:31:27;;;;;;;4.83;3.00;;;13.30;99.90;;;;;;4996722;28;20179;-79
2022/06/15 05:33:55;;;;;;;3.97;3.27;;;13.30;99.90;;;;;;4996311;28;20213;-79
2022/06/15 05:36:23;;;;;;;3.57;3.27;;;13.40;99.90;;;;;;4996639;28;20203;-79
2022/06/15 05:38:49;;;;;;;6.53;3.10;;;13.50;99.90;;;;;;5012294;28;20187;-79
2022/06/15 05:41:15;;;;;;;4.83;3.70;;;13.60;99.90;;;;;;5012499;28;20240;-79
2022/06/15 05:43:43;;;;;;;4.63;3.70;;;13.60;99.90;;;;;;4997554;28;20186;-79
2022/06/15 05:46:31;;;;;;;5.03;3.63;;;13.70;99.90;;;;;;5000181;28;20558;-79
2022/06/15 05:48:58;;;;;;;3.77;3.27;;;13.80;99.90;;;;;;4999782;28;20174;-79
2022/06/15 05:51:25;;;;;;;3.90;3.53;;;13.80;99.90;;;;;;5016069;28;20205;-79
2022/06/15 05:53:51;;;;;;;3.93;3.00;;;13.90;99.90;;;;;;4999503;28;20240;-79
2022/06/15 05:56:17;;;;;;;5.13;3.50;;;14.00;99.90;;;;;;5016973;28;20210;-79
2022/06/15 05:58:43;;;;;;;5.00;3.47;;;14.00;99.90;;;;;;4998783;28;20196;-79
2022/06/15 06:01:10;;;;;;;4.00;3.33;;;14.10;99.90;;;;;;4998911;28;20189;-79
2022/06/15 06:03:35;;;;;;;3.90;3.37;;;14.20;99.90;;;;;;5017062;28;20229;-78
2022/06/15 06:06:01;;;;;;;4.57;3.50;;;14.20;99.90;;;;;;4999915;28;20211;-79
2022/06/15 06:08:27;;;;;;;4.07;3.40;;;14.30;99.90;;;;;;4984197;28;20179;-79
2022/06/15 06:10:52;;;;;;;4.13;3.50;;;14.30;99.90;;;;;;4999847;28;20563;-79
2022/06/15 06:13:18;;;;;;;3.63;2.97;;;14.30;99.90;;;;;;4983519;28;20217;-79
2022/06/15 06:15:43;;;;;;;4.07;3.50;;;14.40;99.90;;;;;;4982962;28;20232;-78
2022/06/15 06:18:09;;;;;;;3.23;2.60;;;14.50;99.90;;;;;;4982596;28;20237;-78
2022/06/15 06:20:35;;;;;;;4.50;2.80;;;14.60;99.90;;;;;;4981422;28;20194;-78
2022/06/15 06:23:00;;;;;;;3.10;2.70;;;14.90;99.90;;;;;;4981440;28;20719;-78
2022/06/15 06:25:26;;;;;;;4.07;3.00;;;15.40;99.90;;;;;;4981546;28;20199;-78
2022/06/15 06:27:52;;;;;;;2.83;2.50;;;15.70;99.90;;;;;;5014264;28;20194;-78
2022/06/15 06:30:21;;;;;;;2.43;2.20;;;15.90;99.90;;;;;;4997667;28;20184;-78
2022/06/15 06:32:47;;;;;;;2.73;2.40;;;16.00;99.90;;;;;;4997724;28;20183;-78
2022/06/15 06:35:13;;;;;;;2.83;2.60;;;16.20;99.90;;;;;;5013871;28;20182;-78
2022/06/15 06:37:39;;;;;;;3.63;2.70;;;16.40;99.90;;;;;;4997456;28;20265;-78
2022/06/15 06:40:05;;;;;;;3.10;2.80;;;16.40;99.90;;;;;;4997503;28;20187;-78
2022/06/15 06:42:31;;;;;;;3.57;2.43;;;16.50;99.90;;;;;;5013612;28;20179;-78
2022/06/15 06:44:56;;;;;;;2.93;2.20;;;16.40;99.90;;;;;;4997432;28;20176;-78
2022/06/15 06:47:22;;;;;;;3.07;2.40;;;16.50;99.90;;;;;;4981162;28;20234;-78
2022/06/15 06:49:48;;;;;;;3.07;2.57;;;16.70;99.90;;;;;;4981182;28;20212;-78
2022/06/15 06:52:13;;;;;;;3.80;2.80;;;16.70;99.90;;;;;;5013741;28;20171;-78
2022/06/15 06:54:39;;;;;;;3.40;2.60;;;16.80;99.90;;;;;;4996920;28;20179;-78
2022/06/15 06:57:05;;;;;;;3.90;2.50;;;16.90;99.90;;;;;;4980689;28;20646;-78
2022/06/15 06:59:30;;;;;;;3.77;2.57;;;17.10;99.90;;;;;;4983237;28;20183;-79
2022/06/15 07:01:56;;;;;;;3.63;2.60;;;17.10;99.90;;;;;;4997212;28;20183;-77
2022/06/15 07:04:21;;;;;;;3.47;2.23;;;17.20;99.90;;;;;;5013721;28;20183;-78
2022/06/15 07:06:47;;;;;;;4.03;2.70;;;17.30;99.90;;;;;;4997175;28;20301;-78
2022/06/15 07:09:14;;;;;;;3.47;2.10;;;17.50;99.90;;;;;;4996902;28;20657;-78
2022/06/15 07:11:44;;;;;;;2.70;2.30;;;17.60;99.90;;;;;;5012934;28;20637;-78
2022/06/15 07:14:10;;;;;;;2.43;2.23;;;17.80;99.90;;;;;;5012757;28;20179;-78
2022/06/15 07:16:35;;;;;;;3.97;2.20;;;17.90;99.90;;;;;;4996388;28;20550;-78
2022/06/15 07:19:01;;;;;;;3.37;2.50;;;18.10;99.90;;;;;;5012745;28;20669;-78
2022/06/15 07:21:31;;;;;;;2.57;2.10;;;18.20;99.90;;;;;;4996162;28;20190;-78
2022/06/15 07:23:57;;;;;;;2.77;2.37;;;18.30;99.90;;;;;;4980478;28;20182;-78
2022/06/15 07:26:34;;;;;;;2.63;2.33;;;18.40;99.90;;;;;;4996279;28;20302;-78
2022/06/15 07:29:00;;;;;;;9.33;3.30;;;18.50;99.90;;;;;;5012575;28;20232;-78
2022/06/15 07:31:34;;;;;;;6.17;2.37;;;18.60;99.90;;;;;;4996093;28;20179;-78
2022/06/15 07:34:00;;;;;;;4.83;2.40;;;18.70;99.90;;;;;;5012714;28;20171;-78
2022/06/15 07:36:26;;;;;;;4.40;2.37;;;18.90;99.90;;;;;;4996447;28;20218;-78
2022/06/15 07:38:53;;;;;;;2.80;2.50;;;19.00;99.90;;;;;;5012865;28;20187;-78
2022/06/15 07:41:20;;;;;;;2.97;2.23;;;19.20;99.90;;;;;;5017750;28;20190;-78
2022/06/15 07:43:46;;;;;;;4.27;2.67;;;19.20;99.90;;;;;;5033096;28;20186;-78
2022/06/15 07:46:12;;;;;;;3.37;2.30;;;19.40;99.90;;;;;;5015798;28;20242;-78
2022/06/15 07:51:38;;;;;;;3.33;2.00;;;19.70;99.90;;;;;;5033726;28;20185;-78
2022/06/15 07:54:09;;;;;;;3.03;2.20;;;19.90;99.90;;;;;;5031770;28;20174;-78
2022/06/15 07:56:35;;;;;;;3.40;2.50;;;20.10;99.90;;;;;;5032478;28;20221;-77
2022/06/15 07:59:00;;;;;;;2.60;2.20;;;20.30;99.90;;;;;;4999468;28;20182;-77
2022/06/15 08:01:27;;;;;;;2.53;2.10;;;20.40;99.90;;;;;;4999171;28;20178;-77
2022/06/15 08:03:54;;;;;;;3.80;2.53;;;20.50;99.90;;;;;;5015350;28;20591;-77
2022/06/15 08:06:21;;;;;;;3.20;2.10;;;20.60;99.90;;;;;;5014681;28;20226;-77
2022/06/15 08:08:47;;;;;;;2.43;2.10;;;20.80;99.90;;;;;;5031604;28;20177;-77
2022/06/15 08:11:14;;;;;;;2.70;2.10;;;20.90;99.90;;;;;;4999075;28;20265;-77
2022/06/15 08:13:40;;;;;;;2.50;2.30;;;21.00;99.90;;;;;;5032093;28;20545;-78
2022/06/15 08:16:06;;;;;;;4.05;2.20;;;21.10;99.90;;;;;;5033295;28;20584;-77
2022/06/15 08:18:37;;;;;;;3.33;2.30;;;21.30;99.90;;;;;;5015647;28;20185;-77
2022/06/15 08:21:06;;;;;;;5.93;2.45;;;21.40;99.90;;;;;;5032180;28;20575;-77
2022/06/15 08:23:35;;;;;;;3.45;2.42;;;21.50;99.90;;;;;;5031717;28;20170;-77
2022/06/15 08:26:06;;;;;;;5.32;2.92;;;21.60;99.90;;;;;;5031909;28;20298;-78
2022/06/15 08:28:34;;;;;;;3.88;2.40;;;21.70;99.90;;;;;;5015730;28;20171;-78
2022/06/15 08:31:00;;;;;;;3.53;2.33;;;21.90;99.90;;;;;;5031452;28;20758;-77
2022/06/15 08:33:27;;;;;;;3.92;2.58;;;22.10;99.90;;;;;;5031296;28;20740;-78
2022/06/15 08:35:53;;;;;;;4.63;2.60;;;22.40;99.90;;;;;;5031514;28;20194;-77
2022/06/15 08:38:21;;;;;;;3.38;2.50;;;22.50;99.90;;;;;;5015130;28;20317;-77
2022/06/15 08:41:01;;;;;;;2.92;2.33;;;22.80;99.90;;;;;;5030683;28;20186;-78
2022/06/15 08:43:41;;;;;;;2.70;2.38;;;23.00;99.90;;;;;;5013283;28;20186;-78
2022/06/15 08:46:50;;;;;;;3.38;2.40;;;23.10;99.90;;;;;;5011798;28;20222;-78
2022/06/15 08:49:40;;;;;;;4.60;2.60;;;23.20;99.90;;;;;;5007726;28;20190;-78
2022/06/15 08:52:20;;;;;;;4.35;2.60;;;23.40;99.90;;;;;;5011888;28;20171;-78
2022/06/15 08:54:59;;;;;;;2.72;2.50;;;23.40;99.90;;;;;;5013132;28;20155;-78
2022/06/15 08:57:48;;;;;;;4.85;2.70;;;23.60;99.90;;;;;;5012237;28;20292;-78
2022/06/15 09:00:21;;;;;;;3.03;2.45;;;23.80;99.90;;;;;;5013023;28;20201;-78
2022/06/15 09:03:05;;;;;;;4.32;2.25;;;24.00;99.90;;;;;;5012599;28;20575;-78
2022/06/15 09:06:16;;;;;;;4.70;2.55;;;24.20;99.90;;;;;;5012374;28;20190;-78
2022/06/15 09:08:49;;;;;;;3.67;2.53;;;24.20;99.90;;;;;;5012326;28;20159;-78
2022/06/15 09:11:40;;;;;;;3.72;2.50;;;24.30;99.90;;;;;;5012683;28;20175;-78
2022/06/15 09:14:32;;;;;;;3.15;2.55;;;24.40;98.80;;;;;;5012334;28;20266;-78
2022/06/15 09:17:07;;;;;;;5.38;2.53;;;24.40;98.30;;;;;;5012462;28;20205;-78
2022/06/15 09:19:45;;;;;;;4.70;2.90;;;24.50;98.20;;;;;;5017418;28;20217;-78
2022/06/15 09:22:22;;;;;;;5.07;2.92;;;24.70;97.90;;;;;;5016337;28;20174;-78
2022/06/15 09:25:01;;;;;;;4.55;2.75;;;24.90;97.80;;;;;;5016193;28;20258;-78
2022/06/15 09:27:35;;;;;;;2.95;2.65;;;25.00;96.30;;;;;;5014969;28;20238;-78
2022/06/15 09:30:21;;;;;;;4.53;2.78;;;25.20;95.20;;;;;;5014800;28;20246;-78
2022/06/15 09:32:53;;;;;;;4.40;2.65;;;25.30;95.60;;;;;;5017023;28;20246;-79
2022/06/15 09:35:37;;;;;;;3.80;2.50;;;25.50;94.80;;;;;;5015398;28;20186;-79
2022/06/15 09:38:06;;;;;;;3.88;2.60;;;25.60;93.30;;;;;;5015505;28;20226;-79
2022/06/15 09:40:45;;;;;;;3.28;2.75;;;25.70;92.50;;;;;;5015158;28;20629;-78
2022/06/15 09:43:25;;;;;;;4.10;2.88;;;25.60;90.60;;;;;;5031346;28;20169;-79
2022/06/15 09:46:17;;;;;;;4.40;2.80;;;25.90;89.10;;;;;;5014885;28;20206;-79
2022/06/15 09:49:23;;;;;;;4.85;2.83;;;26.20;91.10;;;;;;5015478;28;20163;-79
2022/06/15 09:52:02;;;;;;;5.03;2.85;;;26.50;89.50;;;;;;5015043;28;20178;-78
2022/06/15 09:54:49;;;;;;;4.38;2.47;;;26.70;91.10;;;;;;5015681;28;20217;-79
2022/06/15 09:57:16;;;;;;;5.00;3.08;;;26.90;87.90;;;;;;5015117;28;20207;-79
2022/06/15 09:59:41;;;;;;;3.55;2.70;;;27.20;90.60;;;;;;5014819;28;20707;-79
2022/06/15 10:02:34;;;;;;;7.28;3.33;;;27.40;83.80;;;;;;5014919;28;20187;-79
2022/06/15 10:05:03;;;;;;;3.08;2.78;;;27.40;80.00;;;;;;4998953;28;20186;-79
2022/06/15 10:07:37;;;;;;;2.90;2.60;;;27.10;77.60;;;;;;4998838;28;20218;-79
2022/06/15 10:10:28;;;;;;;4.80;2.40;;;27.20;79.00;;;;;;5015830;28;20665;-78
2022/06/15 10:13:23;;;;;;;4.90;2.60;;;27.20;79.70;;;;;;5005876;28;20187;-79
2022/06/15 10:16:17;;;;;;;4.95;3.10;;;27.20;79.40;;;;;;5015560;28;20198;-78
2022/06/15 10:18:49;;;;;;;3.40;2.80;;;27.30;78.60;;;;;;5006408;28;20187;-77
2022/06/15 10:21:15;;;;;;;2.88;2.55;;;27.60;77.00;;;;;;5014391;28;20213;-78
2022/06/15 10:23:52;;;;;;;4.32;2.80;;;27.80;76.50;;;;;;5014542;28;20199;-78
2022/06/15 10:26:29;;;;;;;3.97;2.83;;;27.90;77.30;;;;;;5014611;28;20202;-78
2022/06/15 10:28:56;;;;;;;5.50;2.90;;;27.80;72.30;;;;;;4981812;28;20712;-79
2022/06/15 10:31:34;;;;;;;5.43;2.70;;;27.40;72.90;;;;;;5015093;28;20171;-79
2022/06/15 10:34:20;;;;;;;3.85;2.47;;;27.40;74.10;;;;;;5014647;28;20160;-77
2022/06/15 10:36:55;;;;;;;3.17;2.80;;;27.60;74.60;;;;;;5014210;28;20230;-78
2022/06/15 10:39:28;;;;;;;3.88;2.80;;;27.60;71.20;;;;;;5014438;28;20171;-78
2022/06/15 10:42:09;;;;;;;3.75;2.85;;;27.50;72.00;;;;;;5008373;28;20236;-79
2022/06/15 10:44:48;;;;;;;5.43;2.78;;;27.70;71.40;;;;;;5034710;28;20182;-79
2022/06/15 10:47:24;;;;;;;3.28;2.80;;;27.90;66.00;;;;;;5035646;28;20238;-78
2022/06/15 10:50:00;;;;;;;2.90;2.60;;;28.00;64.60;;;;;;5035567;28;20612;-78
2022/06/15 10:52:43;;;;;;;4.35;2.90;;;28.30;68.50;;;;;;5034323;28;20162;-78
2022/06/15 11:03:39;;;;;;;3.53;2.65;;;28.90;63.60;;;;;;5034411;28;20198;-78
2022/06/15 11:06:05;;;;;;;3.30;2.75;;;28.60;63.00;;;;;;5034106;28;20232;-78
2022/06/15 11:08:34;;;;;;;3.35;2.83;;;28.50;63.40;;;;;;5001197;28;20181;-78
2022/06/15 11:11:29;;;;;;;3.30;2.53;;;28.80;59.40;;;;;;5034029;28;20178;-78
2022/06/15 11:14:03;;;;;;;4.20;2.95;;;29.20;59.50;;;;;;5017719;28;20190;-78
2022/06/15 11:19:23;;;;;;;3.33;2.72;;;29.00;58.50;;;;;;5035474;28;20257;-78
2022/06/15 11:22:08;;;;;;;3.45;2.65;;;29.20;58.40;;;;;;5033333;28;20189;-78
2022/06/15 11:24:45;;;;;;;4.22;2.60;;;29.10;57.80;;;;;;5034980;28;20613;-78
2022/06/15 11:27:24;;;;;;;2.90;2.53;;;29.40;58.20;;;;;;5034928;28;20239;-78
2022/06/15 11:30:06;;;;;;;4.80;2.30;;;29.50;56.50;;;;;;5033807;28;20624;-78
2022/06/15 11:32:43;;;;;;;2.78;2.50;;;29.50;55.10;;;;;;5033533;28;20205;-78
2022/06/15 11:35:11;;;;;;;4.15;2.47;;;29.30;55.50;;;;;;5033543;28;20165;-78
2022/06/15 11:37:53;;;;;;;2.85;2.50;;;29.30;56.20;;;;;;5033292;28;20214;-78
2022/06/15 11:40:38;;;;;;;4.25;2.72;;;29.10;54.70;;;;;;5033312;28;20216;-79
2022/06/15 11:43:11;;;;;;;3.42;2.40;;;29.30;54.70;;;;;;5013606;28;20174;-78
2022/06/15 11:45:59;;;;;;;2.95;2.30;;;29.80;54.40;;;;;;5013306;28;20649;-79
2022/06/15 11:49:06;;;;;;;3.17;2.25;;;30.20;52.90;;;;;;5013730;28;20170;-79
2022/06/15 11:51:52;;;;;;;2.40;2.20;;;30.70;52.80;;;;;;4999579;28;20209;-79
2022/06/15 11:55:08;;;;;;;3.80;2.78;;;30.60;49.90;;;;;;5014448;28;20185;-79
2022/06/15 11:57:52;;;;;;;4.07;2.40;;;30.50;49.90;;;;;;4996157;28;20656;-79
2022/06/15 12:00:43;;;;;;;2.83;2.35;;;30.50;49.40;;;;;;5014741;28;20178;-78
2022/06/15 12:03:15;;;;;;;3.92;2.28;;;30.00;50.40;;;;;;5012470;28;20174;-78
2022/06/15 12:05:53;;;;;;;4.18;2.75;;;30.30;53.20;;;;;;5013278;28;20179;-77
2022/06/15 12:08:46;;;;;;;3.42;2.33;;;30.80;52.60;;;;;;5013678;28;20186;-78
2022/06/15 12:14:43;;;;;;;3.33;2.22;;;31.30;48.40;;;;;;5013270;28;20170;-75
2022/06/15 12:17:14;;;;;;;2.97;2.67;;;31.30;48.40;;;;;;5011911;28;20211;-75
2022/06/15 12:19:50;;;;;;;2.78;2.30;;;31.10;49.40;;;;;;5011792;28;20182;-75
2022/06/15 12:22:30;;;;;;;4.55;2.40;;;31.00;48.00;;;;;;5012880;28;20169;-75
2022/06/15 12:25:02;;;;;;;4.10;2.50;;;31.10;47.80;;;;;;5013218;28;20170;-75
2022/06/15 12:27:41;;;;;;;3.55;2.50;;;31.30;46.70;;;;;;5011953;28;20241;-75
2022/06/15 12:30:15;;;;;;;2.58;2.30;;;31.50;47.00;;;;;;5011695;28;20163;-75
2022/06/15 12:33:09;;;;;;;2.65;2.30;;;31.80;46.40;;;;;;5011802;28;20213;-75
2022/06/15 12:35:53;;;;;;;2.88;2.25;;;31.80;46.40;;;;;;5010995;28;20229;-75
2022/06/15 12:38:58;;;;;;;3.00;2.40;;;31.40;46.60;;;;;;5011565;28;20709;-75
2022/06/15 12:44:23;;;;;;;4.22;2.50;;;31.30;45.70;;;;;;5032860;28;20177;-76
2022/06/15 12:46:51;;;;;;;2.75;2.50;;;31.40;45.80;;;;;;5031170;28;20225;-76
2022/06/15 12:49:40;;;;;;;3.22;2.40;;;31.10;46.40;;;;;;5031467;28;20261;-76
2022/06/15 12:52:15;;;;;;;2.30;2.10;;;31.60;48.00;;;;;;5032776;28;20556;-76
2022/06/15 12:55:14;;;;;;;2.55;2.35;;;31.80;43.60;;;;;;5021509;28;20182;-76
2022/06/15 12:57:58;;;;;;;3.20;2.40;;;31.40;43.50;;;;;;5037601;28;20220;-76
2022/06/15 13:00:32;;;;;;;2.67;2.25;;;31.40;45.60;;;;;;5037685;28;20170;-76
2022/06/15 13:03:36;;;;;;;2.78;2.47;;;31.80;44.30;;;;;;5037731;28;20174;-76
2022/06/15 13:06:33;;;;;;;4.05;2.63;;;32.10;43.70;;;;;;5038679;28;20201;-76
2022/06/15 13:09:14;;;;;;;3.70;2.13;;;32.20;43.80;;;;;;4994317;28;20193;-76
2022/06/15 13:11:46;;;;;;;3.90;2.00;;;32.70;43.80;;;;;;5037731;28;20178;-76
2022/06/15 13:14:19;;;;;;;3.00;2.38;;;33.10;41.70;;;;;;5037502;28;20174;-76
2022/06/15 13:17:02;;;;;;;3.00;2.38;;;33.40;41.70;;;;;;5021375;28;20244;-76
2022/06/15 13:19:59;;;;;;;4.25;2.50;;;33.30;41.40;;;;;;5021305;28;20185;-76
2022/06/15 13:22:28;;;;;;;2.63;2.30;;;33.20;40.40;;;;;;5037577;28;20170;-76
2022/06/15 13:24:57;;;;;;;2.35;2.15;;;32.80;41.30;;;;;;5021337;28;20170;-76
2022/06/15 13:27:28;;;;;;;3.13;2.30;;;32.70;40.20;;;;;;5038631;28;20210;-76
2022/06/15 13:30:28;;;;;;;3.38;2.15;;;32.80;42.50;;;;;;5037483;28;20173;-76
2022/06/15 13:33:03;;;;;;;3.10;2.10;;;33.00;40.50;;;;;;5037124;28;20203;-76
2022/06/15 13:35:31;;;;;;;3.78;2.00;;;33.20;39.50;;;;;;5037613;28;20170;-76
2022/06/15 13:38:03;;;;;;;2.70;1.85;;;33.40;39.20;;;;;;5037232;28;20171;-76
2022/06/15 13:40:53;;;;;;;3.55;2.35;;;33.60;39.20;;;;;;5037614;28;20181;-76